Perry, Louisiana
Current Conditions -  °F | °C
As of 11:55 AM on Wednesday 28 Jan 2015 (Local Time) from KIYA Reporting Station
Clear Clear  
Wind Chill: 66°   Ceiling: Unl
Heat Index: 66°   Visibility: 10mi
Dew Point: 43°   Wind: 8mph
Humidity: 44%   Direction: 140°SE
Pressure: 30.26"   Gusts: NA
Location:  29.95°N, 92.16°W
Report Text: KIYA 281755Z AUTO 14007KT 10SM CLR 19/06 A3026 RMK AO2 T01880062 10191 20044
Loading
Personal Weather Stations






























Interactive Weather Map New forecast layout! Learn more

10-Day Weather Forecast

Advertisements
Track Severe Weather on mobile